sensor_id;sensor_type;location;lat;lon;timestamp;P1;durP1;ratioP1;P2;durP2;ratioP2
8131;SDS011;4107;49.212;9.198;2022-07-23T00:01:22;8.90;;;8.00;;
8131;SDS011;4107;49.212;9.198;2022-07-23T00:03:48;9.30;;;8.37;;
8131;SDS011;4107;49.212;9.198;2022-07-23T00:06:14;11.00;;;8.20;;
8131;SDS011;4107;49.212;9.198;2022-07-23T00:08:40;9.77;;;8.17;;
8131;SDS011;4107;49.212;9.198;2022-07-23T00:11:07;8.40;;;7.60;;
8131;SDS011;4107;49.212;9.198;2022-07-23T00:13:32;9.40;;;7.77;;
8131;SDS011;4107;49.212;9.198;2022-07-23T00:15:58;9.00;;;7.87;;
8131;SDS011;4107;49.212;9.198;2022-07-23T00:18:24;8.97;;;7.93;;
8131;SDS011;4107;49.212;9.198;2022-07-23T00:20:49;8.60;;;7.60;;
8131;SDS011;4107;49.212;9.198;2022-07-23T00:23:16;11.77;;;8.10;;
8131;SDS011;4107;49.212;9.198;2022-07-23T00:25:41;8.90;;;7.70;;
8131;SDS011;4107;49.212;9.198;2022-07-23T00:28:07;8.50;;;7.43;;
8131;SDS011;4107;49.212;9.198;2022-07-23T00:30:33;9.23;;;8.33;;
8131;SDS011;4107;49.212;9.198;2022-07-23T00:33:00;8.20;;;7.43;;
8131;SDS011;4107;49.212;9.198;2022-07-23T00:35:28;9.50;;;7.70;;
8131;SDS011;4107;49.212;9.198;2022-07-23T00:37:56;9.10;;;8.17;;
8131;SDS011;4107;49.212;9.198;2022-07-23T00:40:22;8.57;;;7.67;;
8131;SDS011;4107;49.212;9.198;2022-07-23T00:42:48;8.80;;;7.13;;
8131;SDS011;4107;49.212;9.198;2022-07-23T00:45:14;8.97;;;7.33;;
8131;SDS011;4107;49.212;9.198;2022-07-23T00:47:39;9.47;;;7.67;;
8131;SDS011;4107;49.212;9.198;2022-07-23T00:50:06;8.20;;;7.33;;
8131;SDS011;4107;49.212;9.198;2022-07-23T00:52:33;8.00;;;7.10;;
8131;SDS011;4107;49.212;9.198;2022-07-23T00:55:00;8.53;;;7.60;;
8131;SDS011;4107;49.212;9.198;2022-07-23T00:57:26;8.90;;;7.83;;
8131;SDS011;4107;49.212;9.198;2022-07-23T00:59:51;7.97;;;7.17;;
8131;SDS011;4107;49.212;9.198;2022-07-23T01:02:17;7.60;;;6.90;;
8131;SDS011;4107;49.212;9.198;2022-07-23T01:04:43;9.00;;;7.40;;
8131;SDS011;4107;49.212;9.198;2022-07-23T01:07:08;8.10;;;7.40;;
8131;SDS011;4107;49.212;9.198;2022-07-23T01:09:34;8.60;;;7.77;;
8131;SDS011;4107;49.212;9.198;2022-07-23T01:12:00;8.20;;;7.37;;
8131;SDS011;4107;49.212;9.198;2022-07-23T01:14:26;9.63;;;7.30;;
8131;SDS011;4107;49.212;9.198;2022-07-23T01:16:51;8.67;;;7.77;;
8131;SDS011;4107;49.212;9.198;2022-07-23T01:19:17;8.30;;;7.50;;
8131;SDS011;4107;49.212;9.198;2022-07-23T01:21:47;8.07;;;7.30;;
8131;SDS011;4107;49.212;9.198;2022-07-23T01:24:14;7.97;;;7.20;;
8131;SDS011;4107;49.212;9.198;2022-07-23T01:26:45;9.27;;;7.27;;
8131;SDS011;4107;49.212;9.198;2022-07-23T01:29:12;9.97;;;8.23;;
8131;SDS011;4107;49.212;9.198;2022-07-23T01:31:39;9.20;;;8.30;;
8131;SDS011;4107;49.212;9.198;2022-07-23T01:34:04;9.80;;;8.90;;
8131;SDS011;4107;49.212;9.198;2022-07-23T01:36:32;9.90;;;8.70;;
8131;SDS011;4107;49.212;9.198;2022-07-23T01:38:58;8.70;;;8.00;;
8131;SDS011;4107;49.212;9.198;2022-07-23T01:41:24;9.77;;;8.23;;
8131;SDS011;4107;49.212;9.198;2022-07-23T01:43:49;10.53;;;8.30;;
8131;SDS011;4107;49.212;9.198;2022-07-23T01:46:15;9.00;;;8.13;;
8131;SDS011;4107;49.212;9.198;2022-07-23T01:48:41;8.83;;;7.93;;
8131;SDS011;4107;49.212;9.198;2022-07-23T01:51:07;9.37;;;8.57;;
8131;SDS011;4107;49.212;9.198;2022-07-23T01:53:33;9.37;;;8.47;;
8131;SDS011;4107;49.212;9.198;2022-07-23T01:55:58;9.93;;;8.60;;
8131;SDS011;4107;49.212;9.198;2022-07-23T01:58:25;8.93;;;8.13;;
8131;SDS011;4107;49.212;9.198;2022-07-23T02:00:52;8.63;;;7.83;;
8131;SDS011;4107;49.212;9.198;2022-07-23T02:03:18;8.17;;;7.43;;
8131;SDS011;4107;49.212;9.198;2022-07-23T02:05:43;7.87;;;7.13;;
8131;SDS011;4107;49.212;9.198;2022-07-23T02:08:09;9.73;;;8.70;;
8131;SDS011;4107;49.212;9.198;2022-07-23T02:10:34;8.43;;;7.63;;
8131;SDS011;4107;49.212;9.198;2022-07-23T02:13:00;8.67;;;7.87;;
8131;SDS011;4107;49.212;9.198;2022-07-23T02:15:26;9.43;;;8.53;;
8131;SDS011;4107;49.212;9.198;2022-07-23T02:17:51;8.60;;;7.80;;
8131;SDS011;4107;49.212;9.198;2022-07-23T02:20:17;9.27;;;8.37;;
8131;SDS011;4107;49.212;9.198;2022-07-23T02:22:43;9.20;;;8.30;;
8131;SDS011;4107;49.212;9.198;2022-07-23T02:25:09;9.03;;;8.13;;
8131;SDS011;4107;49.212;9.198;2022-07-23T02:27:35;8.80;;;7.90;;
8131;SDS011;4107;49.212;9.198;2022-07-23T02:30:01;8.90;;;8.10;;
8131;SDS011;4107;49.212;9.198;2022-07-23T02:32:27;9.53;;;7.97;;
8131;SDS011;4107;49.212;9.198;2022-07-23T02:34:53;8.93;;;8.13;;
8131;SDS011;4107;49.212;9.198;2022-07-23T02:37:18;9.20;;;8.40;;
8131;SDS011;4107;49.212;9.198;2022-07-23T02:39:44;8.87;;;8.10;;
8131;SDS011;4107;49.212;9.198;2022-07-23T02:42:10;9.33;;;8.53;;
8131;SDS011;4107;49.212;9.198;2022-07-23T02:44:36;10.07;;;9.07;;
8131;SDS011;4107;49.212;9.198;2022-07-23T02:47:01;11.57;;;9.10;;
8131;SDS011;4107;49.212;9.198;2022-07-23T02:49:27;9.40;;;8.53;;
8131;SDS011;4107;49.212;9.198;2022-07-23T02:51:52;10.77;;;9.47;;
8131;SDS011;4107;49.212;9.198;2022-07-23T02:54:18;9.97;;;9.03;;
8131;SDS011;4107;49.212;9.198;2022-07-23T02:56:44;9.53;;;8.60;;
8131;SDS011;4107;49.212;9.198;2022-07-23T02:59:09;9.17;;;8.37;;
8131;SDS011;4107;49.212;9.198;2022-07-23T03:01:35;10.23;;;9.33;;
8131;SDS011;4107;49.212;9.198;2022-07-23T03:04:01;10.67;;;9.60;;
8131;SDS011;4107;49.212;9.198;2022-07-23T03:06:27;10.90;;;9.90;;
8131;SDS011;4107;49.212;9.198;2022-07-23T03:08:52;9.63;;;8.73;;
8131;SDS011;4107;49.212;9.198;2022-07-23T03:11:18;10.47;;;9.47;;
8131;SDS011;4107;49.212;9.198;2022-07-23T03:13:44;13.93;;;9.33;;
8131;SDS011;4107;49.212;9.198;2022-07-23T03:16:10;12.07;;;9.03;;
8131;SDS011;4107;49.212;9.198;2022-07-23T03:18:36;9.83;;;8.83;;
8131;SDS011;4107;49.212;9.198;2022-07-23T03:21:01;9.90;;;9.00;;
8131;SDS011;4107;49.212;9.198;2022-07-23T03:23:27;11.47;;;9.50;;
8131;SDS011;4107;49.212;9.198;2022-07-23T03:25:53;11.57;;;10.13;;
8131;SDS011;4107;49.212;9.198;2022-07-23T03:28:19;11.33;;;9.80;;
8131;SDS011;4107;49.212;9.198;2022-07-23T03:30:45;10.63;;;9.53;;
8131;SDS011;4107;49.212;9.198;2022-07-23T03:33:12;10.37;;;9.47;;
8131;SDS011;4107;49.212;9.198;2022-07-23T03:35:38;11.00;;;10.00;;
8131;SDS011;4107;49.212;9.198;2022-07-23T03:38:04;10.83;;;9.83;;
8131;SDS011;4107;49.212;9.198;2022-07-23T03:40:30;10.70;;;9.67;;
8131;SDS011;4107;49.212;9.198;2022-07-23T03:42:55;11.23;;;9.53;;
8131;SDS011;4107;49.212;9.198;2022-07-23T03:45:21;10.17;;;9.20;;
8131;SDS011;4107;49.212;9.198;2022-07-23T03:47:47;10.23;;;9.23;;
8131;SDS011;4107;49.212;9.198;2022-07-23T03:50:12;12.57;;;9.53;;
8131;SDS011;4107;49.212;9.198;2022-07-23T03:52:38;10.67;;;9.40;;
8131;SDS011;4107;49.212;9.198;2022-07-23T03:55:04;11.90;;;9.30;;
8131;SDS011;4107;49.212;9.198;2022-07-23T03:57:30;11.20;;;10.10;;
8131;SDS011;4107;49.212;9.198;2022-07-23T03:59:55;11.13;;;9.63;;
8131;SDS011;4107;49.212;9.198;2022-07-23T04:02:21;10.80;;;9.70;;
8131;SDS011;4107;49.212;9.198;2022-07-23T04:04:47;10.37;;;9.13;;
8131;SDS011;4107;49.212;9.198;2022-07-23T04:07:13;10.20;;;9.07;;
8131;SDS011;4107;49.212;9.198;2022-07-23T04:09:38;9.03;;;8.13;;
8131;SDS011;4107;49.212;9.198;2022-07-23T04:12:07;11.07;;;8.63;;
8131;SDS011;4107;49.212;9.198;2022-07-23T04:14:33;9.93;;;8.80;;
8131;SDS011;4107;49.212;9.198;2022-07-23T04:16:59;12.20;;;9.50;;
8131;SDS011;4107;49.212;9.198;2022-07-23T04:19:25;10.13;;;8.50;;
8131;SDS011;4107;49.212;9.198;2022-07-23T04:21:51;11.00;;;8.93;;
8131;SDS011;4107;49.212;9.198;2022-07-23T04:24:17;10.23;;;8.77;;
8131;SDS011;4107;49.212;9.198;2022-07-23T04:26:43;9.00;;;8.20;;
8131;SDS011;4107;49.212;9.198;2022-07-23T04:29:09;9.83;;;8.90;;
8131;SDS011;4107;49.212;9.198;2022-07-23T04:31:35;10.27;;;8.07;;
8131;SDS011;4107;49.212;9.198;2022-07-23T04:34:01;9.83;;;8.93;;
8131;SDS011;4107;49.212;9.198;2022-07-23T04:36:26;9.70;;;8.80;;
8131;SDS011;4107;49.212;9.198;2022-07-23T04:38:52;9.00;;;8.20;;
8131;SDS011;4107;49.212;9.198;2022-07-23T04:41:18;9.77;;;8.60;;
8131;SDS011;4107;49.212;9.198;2022-07-23T04:43:44;8.77;;;7.97;;
8131;SDS011;4107;49.212;9.198;2022-07-23T04:46:09;9.27;;;8.23;;
8131;SDS011;4107;49.212;9.198;2022-07-23T04:48:35;9.83;;;7.63;;
8131;SDS011;4107;49.212;9.198;2022-07-23T04:51:01;9.40;;;7.23;;
8131;SDS011;4107;49.212;9.198;2022-07-23T04:53:27;7.90;;;7.20;;
8131;SDS011;4107;49.212;9.198;2022-07-23T04:55:53;11.83;;;7.10;;
8131;SDS011;4107;49.212;9.198;2022-07-23T04:58:19;8.07;;;7.27;;
8131;SDS011;4107;49.212;9.198;2022-07-23T05:00:45;7.83;;;7.07;;
8131;SDS011;4107;49.212;9.198;2022-07-23T05:03:11;7.70;;;6.97;;
8131;SDS011;4107;49.212;9.198;2022-07-23T05:05:36;8.57;;;7.10;;
8131;SDS011;4107;49.212;9.198;2022-07-23T05:08:02;10.07;;;7.47;;
8131;SDS011;4107;49.212;9.198;2022-07-23T05:10:28;8.63;;;7.73;;
8131;SDS011;4107;49.212;9.198;2022-07-23T05:12:54;8.10;;;7.40;;
8131;SDS011;4107;49.212;9.198;2022-07-23T05:15:19;8.40;;;7.33;;
8131;SDS011;4107;49.212;9.198;2022-07-23T05:17:45;8.93;;;7.37;;
8131;SDS011;4107;49.212;9.198;2022-07-23T05:20:10;7.43;;;6.80;;
8131;SDS011;4107;49.212;9.198;2022-07-23T05:22:36;8.57;;;7.73;;
8131;SDS011;4107;49.212;9.198;2022-07-23T05:25:02;8.37;;;7.57;;
8131;SDS011;4107;49.212;9.198;2022-07-23T05:27:29;7.63;;;6.93;;
8131;SDS011;4107;49.212;9.198;2022-07-23T05:29:55;8.07;;;7.40;;
8131;SDS011;4107;49.212;9.198;2022-07-23T05:32:20;7.80;;;6.93;;
8131;SDS011;4107;49.212;9.198;2022-07-23T05:34:46;8.38;;;7.63;;
8131;SDS011;4107;49.212;9.198;2022-07-23T05:37:12;8.73;;;7.40;;
8131;SDS011;4107;49.212;9.198;2022-07-23T05:39:37;8.30;;;7.43;;
8131;SDS011;4107;49.212;9.198;2022-07-23T05:42:03;12.57;;;8.07;;
8131;SDS011;4107;49.212;9.198;2022-07-23T05:44:29;9.40;;;8.43;;
8131;SDS011;4107;49.212;9.198;2022-07-23T05:46:54;13.43;;;9.37;;
8131;SDS011;4107;49.212;9.198;2022-07-23T05:49:20;11.33;;;10.13;;
8131;SDS011;4107;49.212;9.198;2022-07-23T05:51:46;11.53;;;10.33;;
8131;SDS011;4107;49.212;9.198;2022-07-23T05:54:11;11.23;;;9.73;;
8131;SDS011;4107;49.212;9.198;2022-07-23T05:56:37;13.27;;;9.90;;
8131;SDS011;4107;49.212;9.198;2022-07-23T05:59:02;11.00;;;9.83;;
8131;SDS011;4107;49.212;9.198;2022-07-23T06:01:28;10.63;;;9.53;;
8131;SDS011;4107;49.212;9.198;2022-07-23T06:03:54;11.10;;;10.00;;
8131;SDS011;4107;49.212;9.198;2022-07-23T06:06:19;13.73;;;10.30;;
8131;SDS011;4107;49.212;9.198;2022-07-23T06:08:45;11.73;;;10.57;;
8131;SDS011;4107;49.212;9.198;2022-07-23T06:11:11;11.53;;;10.47;;
8131;SDS011;4107;49.212;9.198;2022-07-23T06:13:36;11.90;;;10.70;;
8131;SDS011;4107;49.212;9.198;2022-07-23T06:16:02;11.23;;;10.03;;
8131;SDS011;4107;49.212;9.198;2022-07-23T06:18:27;11.60;;;10.57;;
8131;SDS011;4107;49.212;9.198;2022-07-23T06:20:53;11.97;;;10.03;;
8131;SDS011;4107;49.212;9.198;2022-07-23T06:23:19;10.77;;;9.63;;
8131;SDS011;4107;49.212;9.198;2022-07-23T06:25:45;12.47;;;10.90;;
8131;SDS011;4107;49.212;9.198;2022-07-23T06:28:10;11.83;;;9.67;;
8131;SDS011;4107;49.212;9.198;2022-07-23T06:30:36;11.77;;;10.63;;
8131;SDS011;4107;49.212;9.198;2022-07-23T06:33:02;14.50;;;11.07;;
8131;SDS011;4107;49.212;9.198;2022-07-23T06:35:28;12.43;;;10.23;;
8131;SDS011;4107;49.212;9.198;2022-07-23T06:37:53;11.67;;;10.20;;
8131;SDS011;4107;49.212;9.198;2022-07-23T06:40:19;18.57;;;10.83;;
8131;SDS011;4107;49.212;9.198;2022-07-23T06:42:45;10.70;;;9.60;;
8131;SDS011;4107;49.212;9.198;2022-07-23T06:45:10;13.27;;;10.30;;
8131;SDS011;4107;49.212;9.198;2022-07-23T06:47:36;10.67;;;9.57;;
8131;SDS011;4107;49.212;9.198;2022-07-23T06:50:02;12.63;;;10.00;;
8131;SDS011;4107;49.212;9.198;2022-07-23T06:52:28;12.50;;;10.13;;
8131;SDS011;4107;49.212;9.198;2022-07-23T06:54:54;9.97;;;8.97;;
8131;SDS011;4107;49.212;9.198;2022-07-23T06:57:19;10.93;;;9.47;;
8131;SDS011;4107;49.212;9.198;2022-07-23T06:59:45;11.23;;;9.37;;
8131;SDS011;4107;49.212;9.198;2022-07-23T07:02:10;9.37;;;8.47;;
8131;SDS011;4107;49.212;9.198;2022-07-23T07:04:36;9.67;;;8.77;;
8131;SDS011;4107;49.212;9.198;2022-07-23T07:07:02;10.27;;;9.27;;
8131;SDS011;4107;49.212;9.198;2022-07-23T07:09:28;10.67;;;9.67;;
8131;SDS011;4107;49.212;9.198;2022-07-23T07:11:54;10.60;;;9.60;;
8131;SDS011;4107;49.212;9.198;2022-07-23T07:14:20;11.23;;;10.10;;
8131;SDS011;4107;49.212;9.198;2022-07-23T07:16:46;10.87;;;9.77;;
8131;SDS011;4107;49.212;9.198;2022-07-23T07:19:11;11.23;;;10.00;;
8131;SDS011;4107;49.212;9.198;2022-07-23T07:21:37;11.57;;;10.40;;
8131;SDS011;4107;49.212;9.198;2022-07-23T07:24:03;11.50;;;10.30;;
8131;SDS011;4107;49.212;9.198;2022-07-23T07:26:29;11.53;;;9.90;;
8131;SDS011;4107;49.212;9.198;2022-07-23T07:28:55;11.90;;;10.40;;
8131;SDS011;4107;49.212;9.198;2022-07-23T07:31:21;12.00;;;10.80;;
8131;SDS011;4107;49.212;9.198;2022-07-23T07:33:47;12.10;;;10.67;;
8131;SDS011;4107;49.212;9.198;2022-07-23T07:36:13;11.90;;;10.57;;
8131;SDS011;4107;49.212;9.198;2022-07-23T07:38:38;11.67;;;10.47;;
8131;SDS011;4107;49.212;9.198;2022-07-23T07:41:04;13.13;;;10.20;;
8131;SDS011;4107;49.212;9.198;2022-07-23T07:43:29;11.73;;;10.53;;
8131;SDS011;4107;49.212;9.198;2022-07-23T07:45:55;11.93;;;10.53;;
8131;SDS011;4107;49.212;9.198;2022-07-23T07:48:20;12.40;;;10.33;;
8131;SDS011;4107;49.212;9.198;2022-07-23T07:50:46;11.53;;;10.33;;
8131;SDS011;4107;49.212;9.198;2022-07-23T07:53:12;10.77;;;9.73;;
8131;SDS011;4107;49.212;9.198;2022-07-23T07:55:37;10.03;;;9.13;;
8131;SDS011;4107;49.212;9.198;2022-07-23T07:58:03;10.27;;;9.33;;
8131;SDS011;4107;49.212;9.198;2022-07-23T08:00:29;11.13;;;10.03;;
8131;SDS011;4107;49.212;9.198;2022-07-23T08:02:54;10.00;;;9.10;;
8131;SDS011;4107;49.212;9.198;2022-07-23T08:05:21;9.93;;;8.93;;
8131;SDS011;4107;49.212;9.198;2022-07-23T08:07:51;9.33;;;8.43;;
8131;SDS011;4107;49.212;9.198;2022-07-23T08:10:16;9.10;;;8.20;;
8131;SDS011;4107;49.212;9.198;2022-07-23T08:12:46;8.57;;;7.77;;
8131;SDS011;4107;49.212;9.198;2022-07-23T08:15:14;8.20;;;7.40;;
8131;SDS011;4107;49.212;9.198;2022-07-23T08:17:42;8.40;;;7.60;;
8131;SDS011;4107;49.212;9.198;2022-07-23T08:20:09;9.27;;;8.17;;
8131;SDS011;4107;49.212;9.198;2022-07-23T08:25:20;8.63;;;7.83;;
8131;SDS011;4107;49.212;9.198;2022-07-23T08:27:47;8.67;;;7.77;;
8131;SDS011;4107;49.212;9.198;2022-07-23T08:30:14;9.50;;;7.57;;
8131;SDS011;4107;49.212;9.198;2022-07-23T08:32:58;9.03;;;8.13;;
8131;SDS011;4107;49.212;9.198;2022-07-23T08:35:29;9.00;;;7.97;;
8131;SDS011;4107;49.212;9.198;2022-07-23T08:38:00;9.50;;;8.47;;
8131;SDS011;4107;49.212;9.198;2022-07-23T08:40:27;8.83;;;7.93;;
8131;SDS011;4107;49.212;9.198;2022-07-23T08:42:54;8.77;;;7.97;;
8131;SDS011;4107;49.212;9.198;2022-07-23T08:45:21;10.47;;;8.40;;
8131;SDS011;4107;49.212;9.198;2022-07-23T08:47:52;8.67;;;7.77;;
8131;SDS011;4107;49.212;9.198;2022-07-23T08:50:24;8.23;;;7.43;;
8131;SDS011;4107;49.212;9.198;2022-07-23T08:52:50;9.13;;;8.27;;
8131;SDS011;4107;49.212;9.198;2022-07-23T08:55:17;8.57;;;7.77;;
8131;SDS011;4107;49.212;9.198;2022-07-23T08:57:46;8.43;;;7.63;;
8131;SDS011;4107;49.212;9.198;2022-07-23T09:00:13;8.85;;;8.02;;
8131;SDS011;4107;49.212;9.198;2022-07-23T09:02:40;8.63;;;7.80;;
8131;SDS011;4107;49.212;9.198;2022-07-23T09:05:08;7.75;;;6.93;;
8131;SDS011;4107;49.212;9.198;2022-07-23T09:07:36;8.40;;;7.20;;
8131;SDS011;4107;49.212;9.198;2022-07-23T09:10:09;8.50;;;7.50;;
8131;SDS011;4107;49.212;9.198;2022-07-23T09:12:36;9.60;;;8.48;;
8131;SDS011;4107;49.212;9.198;2022-07-23T09:15:03;8.52;;;7.63;;
8131;SDS011;4107;49.212;9.198;2022-07-23T09:17:36;10.18;;;8.27;;
8131;SDS011;4107;49.212;9.198;2022-07-23T09:20:07;10.00;;;8.10;;
8131;SDS011;4107;49.212;9.198;2022-07-23T09:22:35;8.68;;;7.88;;
8131;SDS011;4107;49.212;9.198;2022-07-23T09:27:46;9.40;;;7.70;;
8131;SDS011;4107;49.212;9.198;2022-07-23T09:30:14;8.45;;;7.55;;
8131;SDS011;4107;49.212;9.198;2022-07-23T09:32:40;9.23;;;8.23;;
8131;SDS011;4107;49.212;9.198;2022-07-23T09:35:06;8.73;;;7.75;;
8131;SDS011;4107;49.212;9.198;2022-07-23T09:37:32;8.02;;;7.25;;
8131;SDS011;4107;49.212;9.198;2022-07-23T09:40:05;8.55;;;7.40;;
8131;SDS011;4107;49.212;9.198;2022-07-23T09:42:33;7.80;;;7.07;;
8131;SDS011;4107;49.212;9.198;2022-07-23T09:44:59;8.35;;;7.47;;
8131;SDS011;4107;49.212;9.198;2022-07-23T09:47:26;8.50;;;7.65;;
8131;SDS011;4107;49.212;9.198;2022-07-23T09:49:59;8.50;;;7.72;;
8131;SDS011;4107;49.212;9.198;2022-07-23T09:52:35;8.73;;;7.93;;
8131;SDS011;4107;49.212;9.198;2022-07-23T09:55:07;8.52;;;7.72;;
8131;SDS011;4107;49.212;9.198;2022-07-23T09:57:33;7.97;;;7.35;;
8131;SDS011;4107;49.212;9.198;2022-07-23T10:00:03;8.57;;;7.60;;
8131;SDS011;4107;49.212;9.198;2022-07-23T10:02:34;9.32;;;8.02;;
8131;SDS011;4107;49.212;9.198;2022-07-23T10:05:01;8.63;;;7.72;;
8131;SDS011;4107;49.212;9.198;2022-07-23T10:07:27;9.00;;;8.10;;
8131;SDS011;4107;49.212;9.198;2022-07-23T10:09:58;7.88;;;7.13;;
8131;SDS011;4107;49.212;9.198;2022-07-23T10:12:25;8.63;;;7.72;;
8131;SDS011;4107;49.212;9.198;2022-07-23T10:15:09;8.52;;;7.47;;
8131;SDS011;4107;49.212;9.198;2022-07-23T10:17:35;8.02;;;7.25;;
8131;SDS011;4107;49.212;9.198;2022-07-23T10:20:02;8.27;;;7.28;;
8131;SDS011;4107;49.212;9.198;2022-07-23T10:22:31;8.48;;;6.72;;
8131;SDS011;4107;49.212;9.198;2022-07-23T10:30:46;7.28;;;6.13;;
8131;SDS011;4107;49.212;9.198;2022-07-23T10:36:25;7.30;;;6.60;;
8131;SDS011;4107;49.212;9.198;2022-07-23T10:39:22;7.22;;;6.53;;
8131;SDS011;4107;49.212;9.198;2022-07-23T10:42:15;7.75;;;7.15;;
8131;SDS011;4107;49.212;9.198;2022-07-23T10:47:13;6.72;;;6.13;;
8131;SDS011;4107;49.212;9.198;2022-07-23T10:49:50;7.13;;;6.50;;
8131;SDS011;4107;49.212;9.198;2022-07-23T10:52:17;8.52;;;6.90;;
8131;SDS011;4107;49.212;9.198;2022-07-23T10:54:45;7.10;;;6.50;;
8131;SDS011;4107;49.212;9.198;2022-07-23T10:57:14;7.53;;;6.85;;
8131;SDS011;4107;49.212;9.198;2022-07-23T11:02:31;7.43;;;6.55;;
8131;SDS011;4107;49.212;9.198;2022-07-23T11:05:02;7.50;;;6.80;;
8131;SDS011;4107;49.212;9.198;2022-07-23T11:07:30;7.38;;;6.68;;
8131;SDS011;4107;49.212;9.198;2022-07-23T11:09:56;7.50;;;6.50;;
8131;SDS011;4107;49.212;9.198;2022-07-23T11:17:23;8.77;;;6.75;;
8131;SDS011;4107;49.212;9.198;2022-07-23T11:22:34;7.05;;;5.72;;
8131;SDS011;4107;49.212;9.198;2022-07-23T11:25:00;5.97;;;5.47;;
8131;SDS011;4107;49.212;9.198;2022-07-23T11:27:38;6.80;;;5.78;;
8131;SDS011;4107;49.212;9.198;2022-07-23T11:30:07;6.35;;;5.55;;
8131;SDS011;4107;49.212;9.198;2022-07-23T11:32:34;6.90;;;6.20;;
8131;SDS011;4107;49.212;9.198;2022-07-23T11:35:05;7.28;;;5.97;;
8131;SDS011;4107;49.212;9.198;2022-07-23T11:37:43;6.07;;;5.57;;
8131;SDS011;4107;49.212;9.198;2022-07-23T11:40:11;6.03;;;5.43;;
8131;SDS011;4107;49.212;9.198;2022-07-23T11:43:00;6.03;;;5.40;;
8131;SDS011;4107;49.212;9.198;2022-07-23T11:45:25;5.90;;;5.40;;
8131;SDS011;4107;49.212;9.198;2022-07-23T11:47:52;5.07;;;4.68;;
8131;SDS011;4107;49.212;9.198;2022-07-23T11:50:18;5.63;;;5.13;;
8131;SDS011;4107;49.212;9.198;2022-07-23T11:52:44;6.47;;;5.05;;
8131;SDS011;4107;49.212;9.198;2022-07-23T11:55:11;6.43;;;5.65;;
8131;SDS011;4107;49.212;9.198;2022-07-23T11:57:38;6.32;;;5.63;;
8131;SDS011;4107;49.212;9.198;2022-07-23T12:02:40;6.38;;;5.72;;
8131;SDS011;4107;49.212;9.198;2022-07-23T12:05:07;6.88;;;5.75;;
8131;SDS011;4107;49.212;9.198;2022-07-23T12:07:35;6.00;;;5.50;;
8131;SDS011;4107;49.212;9.198;2022-07-23T12:12:42;6.22;;;5.63;;
8131;SDS011;4107;49.212;9.198;2022-07-23T12:15:09;6.20;;;5.70;;
8131;SDS011;4107;49.212;9.198;2022-07-23T12:17:36;6.70;;;5.80;;
8131;SDS011;4107;49.212;9.198;2022-07-23T12:20:04;6.05;;;5.22;;
8131;SDS011;4107;49.212;9.198;2022-07-23T12:22:50;6.63;;;6.03;;
8131;SDS011;4107;49.212;9.198;2022-07-23T12:25:17;7.88;;;6.00;;
8131;SDS011;4107;49.212;9.198;2022-07-23T12:27:44;7.47;;;6.65;;
8131;SDS011;4107;49.212;9.198;2022-07-23T12:30:24;6.70;;;6.10;;
8131;SDS011;4107;49.212;9.198;2022-07-23T12:32:55;6.75;;;6.18;;
8131;SDS011;4107;49.212;9.198;2022-07-23T12:35:22;6.40;;;5.72;;
8131;SDS011;4107;49.212;9.198;2022-07-23T12:37:50;5.97;;;5.47;;
8131;SDS011;4107;49.212;9.198;2022-07-23T12:42:56;6.82;;;6.00;;
8131;SDS011;4107;49.212;9.198;2022-07-23T12:45:23;7.25;;;6.55;;
8131;SDS011;4107;49.212;9.198;2022-07-23T12:48:00;6.75;;;6.15;;
8131;SDS011;4107;49.212;9.198;2022-07-23T12:50:35;6.35;;;5.85;;
8131;SDS011;4107;49.212;9.198;2022-07-23T12:53:09;7.45;;;6.75;;
8131;SDS011;4107;49.212;9.198;2022-07-23T12:55:36;7.30;;;6.70;;
8131;SDS011;4107;49.212;9.198;2022-07-23T12:58:03;7.47;;;6.65;;
8131;SDS011;4107;49.212;9.198;2022-07-23T13:00:30;7.47;;;6.80;;
8131;SDS011;4107;49.212;9.198;2022-07-23T13:02:56;6.85;;;6.25;;
8131;SDS011;4107;49.212;9.198;2022-07-23T13:05:22;7.20;;;6.50;;
8131;SDS011;4107;49.212;9.198;2022-07-23T13:07:48;6.70;;;6.10;;
8131;SDS011;4107;49.212;9.198;2022-07-23T13:10:14;6.97;;;6.20;;
8131;SDS011;4107;49.212;9.198;2022-07-23T13:12:40;7.03;;;5.97;;
8131;SDS011;4107;49.212;9.198;2022-07-23T13:15:06;8.82;;;6.40;;
8131;SDS011;4107;49.212;9.198;2022-07-23T13:17:32;6.88;;;6.28;;
8131;SDS011;4107;49.212;9.198;2022-07-23T13:19:58;9.10;;;6.97;;
8131;SDS011;4107;49.212;9.198;2022-07-23T13:22:24;7.60;;;6.78;;
8131;SDS011;4107;49.212;9.198;2022-07-23T13:24:50;6.65;;;6.05;;
8131;SDS011;4107;49.212;9.198;2022-07-23T13:27:17;7.30;;;6.70;;
8131;SDS011;4107;49.212;9.198;2022-07-23T13:29:43;7.40;;;6.78;;
8131;SDS011;4107;49.212;9.198;2022-07-23T13:32:18;7.28;;;6.57;;
8131;SDS011;4107;49.212;9.198;2022-07-23T13:34:44;6.57;;;5.97;;
8131;SDS011;4107;49.212;9.198;2022-07-23T13:37:10;7.63;;;6.95;;
8131;SDS011;4107;49.212;9.198;2022-07-23T13:39:38;7.07;;;6.38;;
8131;SDS011;4107;49.212;9.198;2022-07-23T13:42:03;7.45;;;6.60;;
8131;SDS011;4107;49.212;9.198;2022-07-23T13:44:29;7.55;;;6.68;;
8131;SDS011;4107;49.212;9.198;2022-07-23T13:46:55;7.10;;;6.50;;
8131;SDS011;4107;49.212;9.198;2022-07-23T13:49:21;6.78;;;6.18;;
8131;SDS011;4107;49.212;9.198;2022-07-23T13:51:46;6.75;;;6.15;;
8131;SDS011;4107;49.212;9.198;2022-07-23T13:54:12;8.13;;;6.85;;
8131;SDS011;4107;49.212;9.198;2022-07-23T13:56:37;7.20;;;6.47;;
8131;SDS011;4107;49.212;9.198;2022-07-23T13:59:03;7.30;;;6.57;;
8131;SDS011;4107;49.212;9.198;2022-07-23T14:01:38;20.35;;;8.73;;
8131;SDS011;4107;49.212;9.198;2022-07-23T14:04:04;7.72;;;7.03;;
8131;SDS011;4107;49.212;9.198;2022-07-23T14:06:29;9.45;;;6.80;;
8131;SDS011;4107;49.212;9.198;2022-07-23T14:08:55;9.93;;;6.90;;
8131;SDS011;4107;49.212;9.198;2022-07-23T14:11:21;7.45;;;6.75;;
8131;SDS011;4107;49.212;9.198;2022-07-23T14:13:46;7.07;;;6.55;;
8131;SDS011;4107;49.212;9.198;2022-07-23T14:16:16;7.40;;;6.65;;
8131;SDS011;4107;49.212;9.198;2022-07-23T14:18:42;7.60;;;6.57;;
8131;SDS011;4107;49.212;9.198;2022-07-23T14:21:07;7.22;;;6.53;;
8131;SDS011;4107;49.212;9.198;2022-07-23T14:23:33;7.05;;;6.45;;
8131;SDS011;4107;49.212;9.198;2022-07-23T14:25:59;7.35;;;6.65;;
8131;SDS011;4107;49.212;9.198;2022-07-23T14:28:24;7.45;;;6.75;;
8131;SDS011;4107;49.212;9.198;2022-07-23T14:30:50;6.43;;;5.82;;
8131;SDS011;4107;49.212;9.198;2022-07-23T14:33:19;7.53;;;6.82;;
8131;SDS011;4107;49.212;9.198;2022-07-23T14:35:45;8.65;;;6.38;;
8131;SDS011;4107;49.212;9.198;2022-07-23T14:38:11;7.35;;;6.43;;
8131;SDS011;4107;49.212;9.198;2022-07-23T14:40:37;7.18;;;6.47;;
8131;SDS011;4107;49.212;9.198;2022-07-23T14:43:02;7.25;;;6.38;;
8131;SDS011;4107;49.212;9.198;2022-07-23T14:45:35;6.90;;;6.35;;
8131;SDS011;4107;49.212;9.198;2022-07-23T14:48:01;7.57;;;6.88;;
8131;SDS011;4107;49.212;9.198;2022-07-23T14:50:27;9.55;;;6.88;;
8131;SDS011;4107;49.212;9.198;2022-07-23T14:52:53;7.43;;;6.68;;
8131;SDS011;4107;49.212;9.198;2022-07-23T14:55:19;6.85;;;6.25;;
8131;SDS011;4107;49.212;9.198;2022-07-23T14:57:45;7.10;;;6.13;;
8131;SDS011;4107;49.212;9.198;2022-07-23T15:00:20;7.22;;;6.63;;
8131;SDS011;4107;49.212;9.198;2022-07-23T15:02:45;8.57;;;6.45;;
8131;SDS011;4107;49.212;9.198;2022-07-23T15:05:11;9.88;;;7.07;;
8131;SDS011;4107;49.212;9.198;2022-07-23T15:07:36;7.97;;;7.18;;
8131;SDS011;4107;49.212;9.198;2022-07-23T15:10:03;7.43;;;6.53;;
8131;SDS011;4107;49.212;9.198;2022-07-23T15:12:32;7.32;;;6.50;;
8131;SDS011;4107;49.212;9.198;2022-07-23T15:14:58;7.50;;;6.80;;
8131;SDS011;4107;49.212;9.198;2022-07-23T15:17:24;7.35;;;6.75;;
8131;SDS011;4107;49.212;9.198;2022-07-23T15:19:49;7.78;;;7.07;;
8131;SDS011;4107;49.212;9.198;2022-07-23T15:22:16;7.53;;;6.78;;
8131;SDS011;4107;49.212;9.198;2022-07-23T15:24:41;7.10;;;6.50;;
8131;SDS011;4107;49.212;9.198;2022-07-23T15:27:11;7.53;;;6.70;;
8131;SDS011;4107;49.212;9.198;2022-07-23T15:29:36;8.13;;;7.28;;
8131;SDS011;4107;49.212;9.198;2022-07-23T15:32:02;7.80;;;7.15;;
8131;SDS011;4107;49.212;9.198;2022-07-23T15:34:28;7.95;;;7.15;;
8131;SDS011;4107;49.212;9.198;2022-07-23T15:36:54;7.32;;;6.63;;
8131;SDS011;4107;49.212;9.198;2022-07-23T15:39:20;8.48;;;7.60;;
8131;SDS011;4107;49.212;9.198;2022-07-23T15:41:55;7.78;;;7.05;;
8131;SDS011;4107;49.212;9.198;2022-07-23T15:44:20;8.10;;;7.30;;